Time;durP1;ratioP1;P1;durP2;ratioP2;P2;SDS_P1;SDS_P2;PMS_P1;PMS_P2;Temp;Humidity;BMP_temperature;BMP_pressure;BME280_temperature;BME280_humidity;BME280_pressure;Samples;Min_cycle;Max_cycle;Signal;HPM_P1;HPM_P2
2021/12/07 00:01:18;;;;;;;;;;;25.80;45.20;;;;;;5097365;28;1905;-30
2021/12/07 00:03:44;;;;;;;;;;;25.70;45.20;;;;;;5097566;28;947;-30
2021/12/07 00:06:11;;;;;;;;;;;25.80;45.40;;;;;;5097776;28;992;-31
2021/12/07 00:08:40;;;;;;;;;;;25.80;45.60;;;;;;5098040;28;1063;-30
2021/12/07 00:11:08;;;;;;;;;;;25.90;45.50;;;;;;5099278;28;916;-31
2021/12/07 00:13:37;;;;;;;;;;;25.90;45.40;;;;;;5097554;28;987;-31
2021/12/07 00:16:04;;;;;;;;;;;25.80;45.40;;;;;;5098202;28;1014;-31
2021/12/07 00:18:31;;;;;;;;;;;25.90;45.50;;;;;;5098025;28;953;-31
2021/12/07 00:20:57;;;;;;;;;;;26.00;45.20;;;;;;5097632;28;1980;-30
2021/12/07 00:23:24;;;;;;;;;;;25.90;45.50;;;;;;5096932;28;988;-30
2021/12/07 00:25:51;;;;;;;;;;;25.80;45.50;;;;;;5097128;28;1009;-30
2021/12/07 00:28:21;;;;;;;;;;;25.90;45.50;;;;;;5098000;28;1010;-32
2021/12/07 00:30:49;;;;;;;;;;;25.80;45.40;;;;;;5098335;28;1013;-30
2021/12/07 00:33:30;;;;;;;;;;;26.00;45.30;;;;;;5097590;28;984;-30
2021/12/07 00:35:57;;;;;;;;;;;25.80;45.30;;;;;;5097399;28;991;-30
2021/12/07 00:38:25;;;;;;;;;;;25.80;45.40;;;;;;5098185;28;1062;-30
2021/12/07 00:40:52;;;;;;;;;;;25.80;45.50;;;;;;5098535;28;1902;-30
2021/12/07 00:43:20;;;;;;;;;;;25.60;45.50;;;;;;5098197;28;1082;-30
2021/12/07 00:45:49;;;;;;;;;;;25.60;45.70;;;;;;5096898;28;1032;-31
2021/12/07 00:48:16;;;;;;;;;;;25.60;45.70;;;;;;5097177;28;868;-30
2021/12/07 00:50:44;;;;;;;;;;;25.50;45.90;;;;;;5096958;28;963;-31
2021/12/07 00:53:11;;;;;;;;;;;25.50;46.00;;;;;;5096593;28;920;-30
2021/12/07 00:55:39;;;;;;;;;;;25.40;45.80;;;;;;5097648;28;1026;-30
2021/12/07 00:58:16;;;;;;;;;;;25.50;46.00;;;;;;5098451;28;939;-29
2021/12/07 01:00:44;;;;;;;;;;;25.40;45.90;;;;;;5097513;28;1901;-30
2021/12/07 01:03:11;;;;;;;;;;;25.50;46.00;;;;;;5097521;28;989;-30
2021/12/07 01:05:39;;;;;;;;;;;25.60;45.80;;;;;;5097835;28;977;-30
2021/12/07 01:08:21;;;;;;;;;;;25.50;45.90;;;;;;5097483;28;1269;-30
2021/12/07 01:24:47;;;;;;;;;;;25.50;45.90;;;;;;5097609;28;823;-30
2021/12/07 01:27:15;;;;;;;;;;;25.40;46.00;;;;;;5097850;28;986;-31
2021/12/07 01:29:43;;;;;;;;;;;25.30;46.10;;;;;;5097749;28;876;-31
2021/12/07 01:32:30;;;;;;;;;;;25.20;46.10;;;;;;5097639;28;1023;-30
2021/12/07 01:38:01;;;;;;;;;;;25.00;46.50;;;;;;5098337;28;657;-30
2021/12/07 01:40:49;;;;;;;;;;;25.20;46.50;;;;;;5098279;28;951;-30
2021/12/07 01:43:38;;;;;;;;;;;25.10;46.40;;;;;;5098374;28;955;-30
2021/12/07 02:00:04;;;;;;;;;;;25.00;46.30;;;;;;5097682;28;656;-30
2021/12/07 02:02:31;;;;;;;;;;;25.10;46.30;;;;;;5100250;28;1902;-29
2021/12/07 02:04:59;;;;;;;;;;;25.20;46.20;;;;;;5101597;28;1015;-30
2021/12/07 02:07:26;;;;;;;;;;;25.20;46.20;;;;;;5101809;28;1122;-31
2021/12/07 02:09:57;;;;;;;;;;;25.20;46.10;;;;;;5101554;28;925;-31
2021/12/07 02:12:24;;;;;;;;;;;25.20;46.20;;;;;;5101719;28;1000;-30
2021/12/07 02:14:51;;;;;;;;;;;25.20;46.10;;;;;;5101338;28;951;-30
2021/12/07 02:17:21;;;;;;;;;;;25.10;46.20;;;;;;5101446;28;1012;-30
2021/12/07 02:19:48;;;;;;;;;;;25.20;46.20;;;;;;5101753;28;943;-29
2021/12/07 02:22:17;;;;;;;;;;;25.20;46.30;;;;;;5101277;28;1980;-30
2021/12/07 02:24:45;;;;;;;;;;;25.10;46.40;;;;;;5101334;28;1516;-30
2021/12/07 02:27:11;;;;;;;;;;;24.90;46.80;;;;;;5101792;28;985;-32
2021/12/07 02:29:38;;;;;;;;;;;24.80;47.00;;;;;;5101223;28;1011;-31
2021/12/07 02:32:05;;;;;;;;;;;24.80;47.00;;;;;;5101235;28;1019;-30
2021/12/07 02:34:35;;;;;;;;;;;24.70;47.20;;;;;;5100950;28;1019;-28
2021/12/07 02:37:02;;;;;;;;;;;24.70;47.30;;;;;;5101232;28;1026;-30
2021/12/07 02:39:32;;;;;;;;;;;24.60;47.70;;;;;;5101154;28;935;-29
2021/12/07 02:41:59;;;;;;;;;;;24.50;47.90;;;;;;5100542;28;1900;-29
2021/12/07 02:44:26;;;;;;;;;;;24.30;48.10;;;;;;5100778;28;1015;-29
2021/12/07 02:46:53;;;;;;;;;;;24.00;49.00;;;;;;5100756;28;953;-29
2021/12/07 02:49:21;;;;;;;;;;;23.80;49.20;;;;;;5101209;28;994;-32
2021/12/07 02:51:48;;;;;;;;;;;23.60;49.70;;;;;;5101118;28;1155;-31
2021/12/07 02:54:15;;;;;;;;;;;23.50;50.00;;;;;;5100564;28;932;-28
2021/12/07 02:56:43;;;;;;;;;;;23.40;50.40;;;;;;5100361;28;1026;-30
2021/12/07 02:59:09;;;;;;;;;;;23.30;50.60;;;;;;5101043;28;940;-28
2021/12/07 03:01:43;;;;;;;;;;;23.30;50.80;;;;;;5100884;28;1898;-29
2021/12/07 03:04:14;;;;;;;;;;;23.20;50.90;;;;;;5100645;28;1015;-32
2021/12/07 03:06:49;;;;;;;;;;;23.20;51.10;;;;;;5100655;28;1265;-30
2021/12/07 03:26:01;;;;;;;;;;;23.00;51.50;;;;;;5100195;28;980;-31
2021/12/07 03:28:29;;;;;;;;;;;23.00;51.50;;;;;;5100879;28;1007;-30
2021/12/07 03:30:56;;;;;;;;;;;22.90;51.70;;;;;;5100182;28;999;-31
2021/12/07 03:33:23;;;;;;;;;;;23.00;51.70;;;;;;5100514;28;991;-33
2021/12/07 03:35:50;;;;;;;;;;;23.00;51.70;;;;;;5100071;28;988;-31
2021/12/07 03:38:16;;;;;;;;;;;23.00;51.70;;;;;;5100193;28;964;-31
2021/12/07 03:43:48;;;;;;;;;;;23.00;51.70;;;;;;5099287;28;876;-32
2021/12/07 03:46:14;;;;;;;;;;;23.00;51.60;;;;;;5100040;28;983;-32
2021/12/07 03:48:43;;;;;;;;;;;23.00;51.50;;;;;;5100307;28;932;-30
2021/12/07 03:51:09;;;;;;;;;;;23.10;51.40;;;;;;5100062;28;940;-32
2021/12/07 03:53:36;;;;;;;;;;;23.10;51.40;;;;;;5099699;28;997;-32
2021/12/07 03:56:04;;;;;;;;;;;23.00;51.50;;;;;;5100222;28;995;-30
2021/12/07 03:58:32;;;;;;;;;;;22.90;51.70;;;;;;5099884;28;940;-30
2021/12/07 04:01:00;;;;;;;;;;;22.80;51.80;;;;;;5099344;28;1013;-31
2021/12/07 04:03:32;;;;;;;;;;;22.80;53.10;;;;;;5099893;28;1906;-31
2021/12/07 04:06:04;;;;;;;;;;;22.80;52.10;;;;;;5099442;28;947;-30
2021/12/07 04:08:31;;;;;;;;;;;22.70;52.20;;;;;;5099721;28;1197;-31
2021/12/07 04:10:58;;;;;;;;;;;22.70;52.20;;;;;;5099447;28;993;-30
2021/12/07 04:13:26;;;;;;;;;;;22.70;52.20;;;;;;5099093;28;987;-30
2021/12/07 04:15:52;;;;;;;;;;;22.70;52.20;;;;;;5099872;28;984;-30
2021/12/07 04:18:21;;;;;;;;;;;22.70;52.10;;;;;;5099505;28;1010;-30
2021/12/07 04:20:48;;;;;;;;;;;22.80;52.10;;;;;;5099460;28;1024;-32
2021/12/07 04:23:15;;;;;;;;;;;22.70;52.00;;;;;;5098795;28;1902;-30
2021/12/07 04:25:42;;;;;;;;;;;22.80;52.20;;;;;;5098028;28;1008;-32
2021/12/07 04:28:08;;;;;;;;;;;22.70;52.10;;;;;;5099061;28;917;-31
2021/12/07 04:30:37;;;;;;;;;;;22.80;52.10;;;;;;5099265;28;993;-31
2021/12/07 04:33:05;;;;;;;;;;;22.80;52.00;;;;;;5098902;28;943;-32
2021/12/07 04:35:34;;;;;;;;;;;22.80;52.00;;;;;;5098969;28;1114;-31
2021/12/07 04:38:00;;;;;;;;;;;22.80;52.00;;;;;;5098726;28;959;-30
2021/12/07 04:40:28;;;;;;;;;;;22.70;51.90;;;;;;5098492;28;1012;-30
2021/12/07 04:42:55;;;;;;;;;;;22.80;51.90;;;;;;5098484;28;1891;-32
2021/12/07 04:45:32;;;;;;;;;;;22.80;51.80;;;;;;5098595;28;1023;-31
2021/12/07 04:48:13;;;;;;;;;;;22.80;51.90;;;;;;5098383;28;1018;-29
2021/12/07 04:58:53;;;;;;;;;;;22.80;51.90;;;;;;5097801;28;871;-32
2021/12/07 05:01:19;;;;;;;;;;;22.80;51.80;;;;;;5096752;28;1004;-31
2021/12/07 05:03:48;;;;;;;;;;;22.80;51.70;;;;;;5097102;28;1906;-30
2021/12/07 05:06:18;;;;;;;;;;;22.70;51.70;;;;;;5096470;28;996;-30
2021/12/07 05:08:49;;;;;;;;;;;22.80;51.60;;;;;;5096434;28;1094;-30
2021/12/07 05:11:44;;;;;;;;;;;22.80;51.40;;;;;;5097638;28;923;-30
2021/12/07 05:14:17;;;;;;;;;;;22.80;51.40;;;;;;5096435;28;1047;-29
2021/12/07 05:16:53;;;;;;;;;;;22.80;51.30;;;;;;5097002;28;1038;-30
2021/12/07 05:25:13;;;;;;;;;;;22.70;51.60;;;;;;5096507;28;987;-32
2021/12/07 05:38:38;;;;;;;;;;;23.10;50.20;;;;;;5100804;28;911;-33
2021/12/07 05:41:06;;;;;;;;;;;23.20;50.00;;;;;;5100956;28;1007;-34
2021/12/07 05:43:33;;;;;;;;;;;23.20;50.00;;;;;;5100945;28;1894;-31
2021/12/07 05:45:59;;;;;;;;;;;23.30;49.80;;;;;;5100526;28;972;-30
2021/12/07 05:48:26;;;;;;;;;;;23.40;49.90;;;;;;5099974;28;1008;-28
2021/12/07 05:50:53;;;;;;;;;;;23.50;49.50;;;;;;5099842;28;947;-28
2021/12/07 05:53:20;;;;;;;;;;;23.60;49.10;;;;;;5099546;28;970;-28
2021/12/07 05:55:48;;;;;;;;;;;23.60;48.90;;;;;;5099669;28;1843;-28
2021/12/07 05:58:15;;;;;;;;;;;23.80;48.80;;;;;;5098903;28;984;-31
2021/12/07 06:00:44;;;;;;;;;;;23.60;48.80;;;;;;5100033;28;939;-29
2021/12/07 06:03:12;;;;;;;;;;;23.70;49.40;;;;;;5100237;28;1985;-28
2021/12/07 06:05:40;;;;;;;;;;;23.60;48.90;;;;;;5099239;28;940;-28
2021/12/07 06:08:07;;;;;;;;;;;23.60;49.00;;;;;;5099705;28;1054;-29
2021/12/07 06:10:34;;;;;;;;;;;23.50;49.20;;;;;;5099108;28;1014;-30
2021/12/07 06:13:02;;;;;;;;;;;23.40;49.30;;;;;;5098305;28;951;-30
2021/12/07 06:15:32;;;;;;;;;;;23.40;49.60;;;;;;5100006;28;1169;-27
2021/12/07 06:17:59;;;;;;;;;;;23.30;49.50;;;;;;5099859;28;1028;-28
2021/12/07 06:20:25;;;;;;;;;;;23.20;50.80;;;;;;5098012;28;1024;-28
2021/12/07 06:22:52;;;;;;;;;;;23.30;49.80;;;;;;5097646;28;1902;-28
2021/12/07 06:25:20;;;;;;;;;;;23.20;49.90;;;;;;5099413;28;1015;-27
2021/12/07 06:27:46;;;;;;;;;;;23.20;50.00;;;;;;5098001;28;975;-28
2021/12/07 06:30:15;;;;;;;;;;;23.00;50.20;;;;;;5097477;28;873;-27
2021/12/07 06:32:42;;;;;;;;;;;23.00;50.20;;;;;;5097227;28;1906;-28
2021/12/07 06:35:09;;;;;;;;;;;22.90;50.40;;;;;;5098062;28;970;-30
2021/12/07 06:37:36;;;;;;;;;;;22.90;50.50;;;;;;5099394;28;999;-29
2021/12/07 06:40:04;;;;;;;;;;;22.90;50.60;;;;;;5098247;28;1099;-29
2021/12/07 06:42:31;;;;;;;;;;;22.90;50.60;;;;;;5099098;28;1894;-31
2021/12/07 06:44:57;;;;;;;;;;;22.90;50.50;;;;;;5098087;28;1042;-31
2021/12/07 06:47:26;;;;;;;;;;;22.90;50.40;;;;;;5098847;28;1502;-30
2021/12/07 06:49:52;;;;;;;;;;;22.80;50.50;;;;;;5096860;28;1006;-28
2021/12/07 06:52:19;;;;;;;;;;;22.80;50.60;;;;;;5099642;28;916;-30
2021/12/07 06:54:46;;;;;;;;;;;22.70;50.70;;;;;;5097661;28;1014;-29
2021/12/07 06:57:13;;;;;;;;;;;22.70;50.70;;;;;;5097441;28;1001;-30
2021/12/07 06:59:39;;;;;;;;;;;22.70;50.70;;;;;;5097830;28;1014;-28
2021/12/07 07:02:06;;;;;;;;;;;22.70;50.50;;;;;;5096214;28;1003;-31
2021/12/07 07:04:35;;;;;;;;;;;22.70;50.60;;;;;;5098455;28;1475;-29
2021/12/07 07:07:01;;;;;;;;;;;22.60;50.80;;;;;;5097181;28;1287;-28
2021/12/07 07:09:28;;;;;;;;;;;22.60;50.60;;;;;;5098065;28;987;-30
2021/12/07 07:11:55;;;;;;;;;;;22.60;50.60;;;;;;5097565;28;939;-27
2021/12/07 07:14:21;;;;;;;;;;;22.60;50.80;;;;;;5097561;28;936;-28
2021/12/07 07:16:48;;;;;;;;;;;22.60;50.70;;;;;;5098324;28;1009;-28
2021/12/07 07:19:15;;;;;;;;;;;22.50;50.50;;;;;;5098490;28;942;-30
2021/12/07 07:21:43;;;;;;;;;;;22.50;50.50;;;;;;5098706;28;857;-27
2021/12/07 07:24:10;;;;;;;;;;;22.30;50.70;;;;;;5098579;28;1909;-28
2021/12/07 07:26:37;;;;;;;;;;;22.30;51.10;;;;;;5098500;28;939;-28
2021/12/07 07:29:04;;;;;;;;;;;22.20;51.10;;;;;;5097131;28;915;-30
2021/12/07 07:31:31;;;;;;;;;;;22.20;51.10;;;;;;5096972;28;932;-30
2021/12/07 07:33:58;;;;;;;;;;;22.30;51.10;;;;;;5098224;28;944;-28
2021/12/07 07:36:25;;;;;;;;;;;22.30;51.20;;;;;;5097845;28;988;-28
2021/12/07 07:38:53;;;;;;;;;;;22.30;51.20;;;;;;5096484;28;1839;-27
2021/12/07 07:41:20;;;;;;;;;;;22.30;51.10;;;;;;5096869;28;1030;-27
2021/12/07 07:43:46;;;;;;;;;;;22.20;51.10;;;;;;5096778;28;1963;-28
2021/12/07 07:46:13;;;;;;;;;;;22.30;51.10;;;;;;5097456;28;911;-30
2021/12/07 07:48:40;;;;;;;;;;;22.30;51.00;;;;;;5098043;28;1084;-29
2021/12/07 07:51:08;;;;;;;;;;;22.40;50.80;;;;;;5097712;28;952;-28
2021/12/07 07:53:34;;;;;;;;;;;22.30;50.80;;;;;;5096444;28;1048;-30
2021/12/07 07:56:03;;;;;;;;;;;22.40;50.70;;;;;;5097573;28;935;-41
2021/12/07 07:58:29;;;;;;;;;;;22.40;50.70;;;;;;5096557;28;945;-29
2021/12/07 08:00:56;;;;;;;;;;;22.40;50.70;;;;;;5094980;28;1039;-27
2021/12/07 08:03:23;;;;;;;;;;;22.30;50.70;;;;;;5095752;28;1973;-27
2021/12/07 08:05:50;;;;;;;;;;;22.30;50.70;;;;;;5095725;28;960;-30
2021/12/07 08:08:19;;;;;;;;;;;22.30;50.80;;;;;;5096156;28;1159;-28
2021/12/07 08:10:46;;;;;;;;;;;22.30;50.70;;;;;;5096529;28;1806;-28
2021/12/07 08:13:14;;;;;;;;;;;22.30;50.70;;;;;;5097048;28;994;-30
2021/12/07 08:15:43;;;;;;;;;;;22.30;50.90;;;;;;5095683;28;929;-27
2021/12/07 08:18:10;;;;;;;;;;;22.30;50.70;;;;;;5097006;28;916;-29
2021/12/07 08:20:37;;;;;;;;;;;22.30;50.70;;;;;;5097249;28;1093;-27
2021/12/07 08:23:05;;;;;;;;;;;22.30;50.60;;;;;;5096041;28;1901;-28
2021/12/07 08:25:32;;;;;;;;;;;22.30;50.70;;;;;;5096651;28;1056;-30
2021/12/07 08:27:59;;;;;;;;;;;22.30;50.70;;;;;;5096711;28;992;-28
2021/12/07 08:30:27;;;;;;;;;;;22.30;50.70;;;;;;5096955;28;1017;-28
2021/12/07 08:32:54;;;;;;;;;;;22.30;50.60;;;;;;5096832;28;935;-28
2021/12/07 08:35:21;;;;;;;;;;;22.40;50.50;;;;;;5096383;28;986;-33
2021/12/07 08:37:48;;;;;;;;;;;22.30;50.60;;;;;;5096844;28;984;-30
2021/12/07 08:40:16;;;;;;;;;;;22.40;50.60;;;;;;5096547;28;1026;-27
2021/12/07 08:42:43;;;;;;;;;;;22.30;50.60;;;;;;5097057;28;1902;-29
2021/12/07 08:45:10;;;;;;;;;;;22.30;50.60;;;;;;5097163;28;995;-31
2021/12/07 08:47:38;;;;;;;;;;;22.30;50.60;;;;;;5096828;28;1008;-30
2021/12/07 08:50:08;;;;;;;;;;;22.30;50.60;;;;;;5096692;28;984;-28
2021/12/07 08:52:35;;;;;;;;;;;22.20;50.70;;;;;;5096868;28;777;-30
2021/12/07 09:00:33;;;;;;;;;;;22.20;50.60;;;;;;5096439;28;997;-29
2021/12/07 09:03:02;;;;;;;;;;;22.30;50.70;;;;;;5095968;28;1901;-28
2021/12/07 09:05:28;;;;;;;;;;;22.20;50.70;;;;;;5094876;28;1006;-30
2021/12/07 09:07:55;;;;;;;;;;;22.20;50.60;;;;;;5095147;28;1283;-27
2021/12/07 09:10:22;;;;;;;;;;;22.20;50.60;;;;;;5095106;28;988;-28
2021/12/07 09:12:49;;;;;;;;;;;22.20;51.70;;;;;;5095063;28;999;-28
2021/12/07 09:15:16;;;;;;;;;;;22.30;50.60;;;;;;5095958;28;972;-28
2021/12/07 09:17:43;;;;;;;;;;;22.20;50.70;;;;;;5095938;28;1337;-28
2021/12/07 09:20:15;;;;;;;;;;;22.20;50.60;;;;;;5095593;28;924;-30
2021/12/07 09:22:42;;;;;;;;;;;22.30;50.50;;;;;;5095196;28;1698;-28
2021/12/07 09:25:08;;;;;;;;;;;22.30;50.60;;;;;;5093157;28;1898;-29
2021/12/07 09:27:35;;;;;;;;;;;22.20;50.60;;;;;;5093116;28;977;-28
2021/12/07 09:30:02;;;;;;;;;;;22.20;50.60;;;;;;5093294;28;978;-27
2021/12/07 09:32:29;;;;;;;;;;;22.20;50.50;;;;;;5093232;28;1019;-29
2021/12/07 09:34:56;;;;;;;;;;;22.30;50.60;;;;;;5093610;28;986;-28
2021/12/07 09:37:24;;;;;;;;;;;22.20;50.50;;;;;;5092640;28;933;-28
2021/12/07 09:39:51;;;;;;;;;;;22.20;50.50;;;;;;5092917;28;1021;-28
2021/12/07 09:42:18;;;;;;;;;;;22.20;50.60;;;;;;5093147;28;1851;-30
2021/12/07 09:44:45;;;;;;;;;;;22.20;50.50;;;;;;5093341;28;1906;-30
2021/12/07 09:47:12;;;;;;;;;;;22.20;50.60;;;;;;5092990;28;936;-27
2021/12/07 09:49:38;;;;;;;;;;;22.20;50.70;;;;;;5093994;28;1007;-28
2021/12/07 09:52:05;;;;;;;;;;;22.20;50.70;;;;;;5092685;28;1856;-30
2021/12/07 09:54:34;;;;;;;;;;;22.20;50.70;;;;;;5092049;28;1010;-28
2021/12/07 09:57:00;;;;;;;;;;;22.20;50.60;;;;;;5093311;28;1016;-28
2021/12/07 09:59:29;;;;;;;;;;;22.20;50.70;;;;;;5094521;28;965;-30
2021/12/07 10:01:56;;;;;;;;;;;22.20;50.60;;;;;;5093790;28;1032;-28
2021/12/07 10:04:27;;;;;;;;;;;22.10;50.70;;;;;;5092057;28;1977;-27
2021/12/07 10:06:54;;;;;;;;;;;22.10;50.60;;;;;;5093747;28;1236;-30
2021/12/07 10:09:21;;;;;;;;;;;22.10;50.60;;;;;;5094808;28;1014;-28
2021/12/07 10:11:52;;;;;;;;;;;22.10;50.70;;;;;;5094206;28;984;-32
2021/12/07 10:14:18;;;;;;;;;;;22.20;50.60;;;;;;5094630;28;975;-32
2021/12/07 10:16:46;;;;;;;;;;;22.10;50.60;;;;;;5093558;28;1036;-31
2021/12/07 10:19:15;;;;;;;;;;;22.10;50.60;;;;;;5094191;28;1020;-31
2021/12/07 10:21:43;;;;;;;;;;;22.10;50.60;;;;;;5094778;28;884;-32
2021/12/07 10:24:17;;;;;;;;;;;22.10;50.60;;;;;;5096410;28;1989;-31
2021/12/07 10:26:44;;;;;;;;;;;22.10;50.50;;;;;;5097066;28;893;-30
2021/12/07 10:29:13;;;;;;;;;;;22.20;50.50;;;;;;5097312;28;1003;-32
2021/12/07 10:31:41;;;;;;;;;;;22.10;50.60;;;;;;5097592;28;924;-31
2021/12/07 10:34:11;;;;;;;;;;;22.00;50.70;;;;;;5096855;28;935;-31
2021/12/07 10:36:41;;;;;;;;;;;22.00;50.80;;;;;;5097594;28;976;-31
2021/12/07 10:39:10;;;;;;;;;;;22.10;50.90;;;;;;5098243;28;912;-30
2021/12/07 10:41:38;;;;;;;;;;;22.10;50.90;;;;;;5098960;28;1019;-31
2021/12/07 10:44:07;;;;;;;;;;;22.10;50.90;;;;;;5098004;28;1972;-32
2021/12/07 10:46:38;;;;;;;;;;;22.10;50.90;;;;;;5097807;28;964;-30
2021/12/07 10:49:08;;;;;;;;;;;22.00;50.90;;;;;;5097279;28;923;-30
2021/12/07 10:51:35;;;;;;;;;;;22.00;51.00;;;;;;5097527;28;944;-32
2021/12/07 10:54:03;;;;;;;;;;;22.10;50.90;;;;;;5097353;28;948;-31
2021/12/07 10:56:30;;;;;;;;;;;22.10;50.90;;;;;;5097944;28;951;-31
2021/12/07 10:59:01;;;;;;;;;;;22.00;50.80;;;;;;5096923;28;1023;-28
2021/12/07 11:01:31;;;;;;;;;;;22.00;50.80;;;;;;5097382;28;999;-30
2021/12/07 11:04:13;;;;;;;;;;;22.00;50.90;;;;;;5095483;28;1917;-30
2021/12/07 11:06:55;;;;;;;;;;;22.00;50.90;;;;;;5095818;28;1774;-29
2021/12/07 11:09:23;;;;;;;;;;;22.00;50.90;;;;;;5094459;28;1161;-29
2021/12/07 11:12:05;;;;;;;;;;;22.10;50.80;;;;;;5096058;28;997;-28
2021/12/07 11:14:39;;;;;;;;;;;22.20;50.70;;;;;;5097017;28;1008;-30
2021/12/07 11:17:05;;;;;;;;;;;22.10;50.90;;;;;;5095305;28;1031;-29
2021/12/07 11:19:32;;;;;;;;;;;22.10;50.70;;;;;;5094358;28;1039;-30
2021/12/07 11:21:59;;;;;;;;;;;22.10;50.70;;;;;;5095133;28;1011;-29
2021/12/07 11:24:35;;;;;;;;;;;22.10;50.70;;;;;;5092540;28;1913;-28
2021/12/07 11:30:01;;;;;;;;;;;22.00;50.90;;;;;;5032260;28;1074;-29
2021/12/07 11:32:28;;;;;;;;;;;22.10;51.00;;;;;;5080646;28;941;-28
2021/12/07 11:34:56;;;;;;;;;;;22.10;50.90;;;;;;5093634;28;1002;-28
2021/12/07 11:37:23;;;;;;;;;;;22.10;51.10;;;;;;5094228;28;984;-30
2021/12/07 11:39:53;;;;;;;;;;;22.10;51.00;;;;;;5094776;28;1018;-28
2021/12/07 11:42:22;;;;;;;;;;;22.10;50.90;;;;;;5094803;28;1026;-28
2021/12/07 11:44:50;;;;;;;;;;;22.00;51.00;;;;;;5094271;28;1989;-31
2021/12/07 11:47:23;;;;;;;;;;;22.00;50.90;;;;;;5094391;28;996;-30
2021/12/07 11:49:50;;;;;;;;;;;22.10;50.90;;;;;;5093352;28;1020;-28
2021/12/07 11:52:17;;;;;;;;;;;22.10;50.80;;;;;;5093419;28;969;-29
2021/12/07 11:54:44;;;;;;;;;;;22.10;50.80;;;;;;5092618;28;1015;-28
2021/12/07 11:57:13;;;;;;;;;;;22.10;50.90;;;;;;5090315;28;1824;-30
2021/12/07 11:59:41;;;;;;;;;;;22.10;50.90;;;;;;5092384;28;1816;-29
2021/12/07 12:02:08;;;;;;;;;;;22.10;50.70;;;;;;5093409;28;1109;-29
2021/12/07 12:04:35;;;;;;;;;;;22.00;51.00;;;;;;5092240;28;1897;-30
2021/12/07 12:07:02;;;;;;;;;;;22.00;50.90;;;;;;5092481;28;1174;-28
2021/12/07 12:09:29;;;;;;;;;;;22.10;50.90;;;;;;5092628;28;1122;-28
2021/12/07 12:12:00;;;;;;;;;;;22.00;51.00;;;;;;5092636;28;1003;-29
2021/12/07 12:14:37;;;;;;;;;;;22.00;50.90;;;;;;5093310;28;1060;-28
2021/12/07 12:17:08;;;;;;;;;;;22.10;51.10;;;;;;5093521;28;1861;-28
2021/12/07 12:19:41;;;;;;;;;;;22.00;51.00;;;;;;5092618;28;977;-29
2021/12/07 12:22:11;;;;;;;;;;;22.00;51.10;;;;;;5092602;28;1420;-29
2021/12/07 12:24:44;;;;;;;;;;;22.00;51.20;;;;;;5092520;28;1981;-28
2021/12/07 12:27:13;;;;;;;;;;;22.00;51.20;;;;;;5094265;28;1011;-28
2021/12/07 12:29:42;;;;;;;;;;;22.00;51.10;;;;;;5093379;28;957;-31
2021/12/07 12:32:09;;;;;;;;;;;22.00;51.10;;;;;;5093672;28;901;-30
2021/12/07 12:34:37;;;;;;;;;;;22.10;51.10;;;;;;5093223;28;940;-28
2021/12/07 12:37:09;;;;;;;;;;;22.00;50.90;;;;;;5093480;28;1031;-27
2021/12/07 12:39:48;;;;;;;;;;;22.00;51.00;;;;;;5093276;28;993;-28
2021/12/07 12:42:25;;;;;;;;;;;22.00;51.10;;;;;;5094165;28;972;-29
2021/12/07 12:44:58;;;;;;;;;;;22.00;51.00;;;;;;5092701;28;1905;-28
2021/12/07 12:47:26;;;;;;;;;;;22.00;51.20;;;;;;5092826;28;984;-28
2021/12/07 12:49:53;;;;;;;;;;;22.00;51.10;;;;;;5093511;28;986;-30
2021/12/07 12:52:36;;;;;;;;;;;22.10;51.10;;;;;;5093631;28;935;-29
2021/12/07 12:55:04;;;;;;;;;;;22.10;51.10;;;;;;5094425;28;1054;-28
2021/12/07 12:57:30;;;;;;;;;;;22.10;51.00;;;;;;5093496;28;1055;-28
2021/12/07 12:59:58;;;;;;;;;;;22.00;51.00;;;;;;5093006;28;995;-30
2021/12/07 13:02:28;;;;;;;;;;;22.00;51.00;;;;;;5092715;28;1066;-28
2021/12/07 13:05:02;;;;;;;;;;;22.00;50.90;;;;;;5092666;28;1902;-28
2021/12/07 13:07:28;;;;;;;;;;;22.00;51.00;;;;;;5092851;28;1503;-28
2021/12/07 13:09:57;;;;;;;;;;;22.00;50.90;;;;;;5093422;28;994;-28
2021/12/07 13:12:25;;;;;;;;;;;22.00;51.00;;;;;;5093911;28;996;-28
2021/12/07 13:15:04;;;;;;;;;;;22.00;51.00;;;;;;5094080;28;1006;-30
2021/12/07 13:17:33;;;;;;;;;;;22.00;51.20;;;;;;5093445;28;998;-31
2021/12/07 13:20:17;;;;;;;;;;;21.90;51.10;;;;;;5093000;28;1039;-30
2021/12/07 13:22:45;;;;;;;;;;;21.90;51.20;;;;;;5094013;28;1009;-32
2021/12/07 13:25:13;;;;;;;;;;;22.00;51.20;;;;;;5093987;28;1902;-32
2021/12/07 13:27:55;;;;;;;;;;;21.90;51.30;;;;;;5094689;28;936;-33
2021/12/07 13:30:23;;;;;;;;;;;22.00;51.10;;;;;;5094221;28;1839;-33
2021/12/07 13:33:03;;;;;;;;;;;22.00;51.10;;;;;;5093287;28;1022;-31
2021/12/07 13:35:30;;;;;;;;;;;22.00;51.10;;;;;;5096005;28;1003;-31
2021/12/07 13:37:57;;;;;;;;;;;21.90;51.10;;;;;;5095683;28;927;-31
2021/12/07 13:40:25;;;;;;;;;;;22.00;51.20;;;;;;5095571;28;1004;-33
2021/12/07 13:42:53;;;;;;;;;;;22.10;51.00;;;;;;5095323;28;952;-32
2021/12/07 13:45:21;;;;;;;;;;;22.00;51.20;;;;;;5094934;28;1968;-31
2021/12/07 13:47:50;;;;;;;;;;;22.00;51.00;;;;;;5095842;28;947;-32
2021/12/07 13:50:19;;;;;;;;;;;22.00;51.20;;;;;;5096441;28;1010;-33
2021/12/07 13:52:47;;;;;;;;;;;22.00;51.00;;;;;;5095505;28;1222;-34
2021/12/07 13:55:16;;;;;;;;;;;22.00;51.20;;;;;;5095923;28;924;-31
2021/12/07 13:57:44;;;;;;;;;;;22.00;51.10;;;;;;5096186;28;961;-32
2021/12/07 14:00:13;;;;;;;;;;;22.00;51.20;;;;;;5099300;28;1002;-32
2021/12/07 14:02:40;;;;;;;;;;;22.00;52.10;;;;;;5099772;28;1021;-33
2021/12/07 14:05:11;;;;;;;;;;;22.00;51.00;;;;;;5097806;28;1910;-31
2021/12/07 14:07:39;;;;;;;;;;;22.00;51.10;;;;;;5097680;28;1106;-32
2021/12/07 14:10:07;;;;;;;;;;;22.00;51.30;;;;;;5098083;28;1043;-31
2021/12/07 14:12:34;;;;;;;;;;;21.90;51.20;;;;;;5092713;28;951;-31
2021/12/07 14:15:06;;;;;;;;;;;22.00;51.20;;;;;;5093855;28;1042;-32
2021/12/07 14:17:43;;;;;;;;;;;21.90;51.40;;;;;;5095079;28;1054;-32
2021/12/07 14:20:12;;;;;;;;;;;21.90;51.20;;;;;;5091808;28;1182;-31
2021/12/07 14:22:39;;;;;;;;;;;21.90;51.20;;;;;;5091747;28;860;-32
2021/12/07 14:25:06;;;;;;;;;;;22.00;51.30;;;;;;5095677;28;1977;-33
2021/12/07 14:27:33;;;;;;;;;;;22.00;51.20;;;;;;5095239;28;903;-33
2021/12/07 14:30:01;;;;;;;;;;;22.00;51.10;;;;;;5094861;28;995;-31
2021/12/07 14:32:28;;;;;;;;;;;22.00;51.10;;;;;;5093198;28;1003;-32
2021/12/07 14:34:59;;;;;;;;;;;22.00;51.00;;;;;;5096508;28;1007;-32
2021/12/07 14:37:28;;;;;;;;;;;22.00;51.20;;;;;;5096136;28;933;-31
2021/12/07 14:39:55;;;;;;;;;;;21.90;51.10;;;;;;5096145;28;994;-31
2021/12/07 14:42:22;;;;;;;;;;;22.00;51.00;;;;;;5096422;28;904;-32
2021/12/07 14:44:51;;;;;;;;;;;22.00;51.10;;;;;;5095726;28;1909;-33
2021/12/07 14:47:18;;;;;;;;;;;22.00;51.00;;;;;;5096599;28;916;-33
2021/12/07 14:49:45;;;;;;;;;;;21.90;51.10;;;;;;5096787;28;944;-32
2021/12/07 14:52:13;;;;;;;;;;;22.00;51.00;;;;;;5095479;28;976;-31
2021/12/07 14:54:41;;;;;;;;;;;22.00;51.10;;;;;;5096021;28;978;-31
2021/12/07 14:57:08;;;;;;;;;;;22.00;51.00;;;;;;5095587;28;1992;-33
2021/12/07 14:59:36;;;;;;;;;;;22.00;51.00;;;;;;5096308;28;1016;-33
2021/12/07 15:02:04;;;;;;;;;;;21.90;51.20;;;;;;5095358;28;861;-32
2021/12/07 15:04:31;;;;;;;;;;;21.90;51.30;;;;;;5096319;28;1187;-31
2021/12/07 15:06:59;;;;;;;;;;;21.90;51.10;;;;;;5095108;28;1897;-33
2021/12/07 15:09:27;;;;;;;;;;;21.90;51.10;;;;;;5092217;28;904;-31
2021/12/07 15:11:56;;;;;;;;;;;21.90;51.10;;;;;;5095166;28;857;-30
2021/12/07 15:14:23;;;;;;;;;;;21.80;51.10;;;;;;5095216;28;1031;-33
2021/12/07 15:16:51;;;;;;;;;;;21.90;51.20;;;;;;5094687;28;992;-32
2021/12/07 15:19:19;;;;;;;;;;;21.80;51.10;;;;;;5094944;28;1089;-34
2021/12/07 15:21:46;;;;;;;;;;;21.80;51.10;;;;;;5094492;28;994;-32
2021/12/07 15:24:14;;;;;;;;;;;21.90;51.00;;;;;;5094351;28;941;-31
2021/12/07 15:26:41;;;;;;;;;;;21.80;51.10;;;;;;5094897;28;1910;-31
2021/12/07 15:29:10;;;;;;;;;;;21.90;51.00;;;;;;5094764;28;996;-32
2021/12/07 15:31:38;;;;;;;;;;;21.90;51.10;;;;;;5094740;28;1070;-33
2021/12/07 15:34:06;;;;;;;;;;;21.80;51.00;;;;;;5095571;28;1063;-31
2021/12/07 15:36:33;;;;;;;;;;;21.90;50.80;;;;;;5095945;28;1039;-31
2021/12/07 15:39:07;;;;;;;;;;;21.90;50.80;;;;;;5096328;28;1015;-33
2021/12/07 15:41:34;;;;;;;;;;;21.90;51.00;;;;;;5097087;28;924;-32
2021/12/07 15:44:01;;;;;;;;;;;21.80;51.10;;;;;;5097205;28;967;-34
2021/12/07 15:46:29;;;;;;;;;;;21.90;51.00;;;;;;5096815;28;1906;-32
2021/12/07 15:48:56;;;;;;;;;;;21.90;51.10;;;;;;5096442;28;1029;-32
2021/12/07 15:51:23;;;;;;;;;;;21.80;51.00;;;;;;5095650;28;931;-29
2021/12/07 15:53:52;;;;;;;;;;;21.80;51.00;;;;;;5095441;28;996;-32
2021/12/07 15:56:21;;;;;;;;;;;21.80;50.90;;;;;;5096928;28;1102;-28
2021/12/07 15:58:47;;;;;;;;;;;21.70;51.00;;;;;;5095920;28;1725;-30
2021/12/07 16:01:14;;;;;;;;;;;21.70;51.00;;;;;;5097266;28;1038;-29
2021/12/07 16:03:44;;;;;;;;;;;21.70;51.00;;;;;;5095677;28;965;-28
2021/12/07 16:06:16;;;;;;;;;;;21.70;51.10;;;;;;5096189;28;1906;-29
2021/12/07 16:08:42;;;;;;;;;;;21.70;51.00;;;;;;5095284;28;1035;-29